Time;durP1;ratioP1;P1;durP2;ratioP2;P2;SDS_P1;SDS_P2;PMS_P1;PMS_P2;Temp;Humidity;BMP_temperature;BMP_pressure;BME280_temperature;BME280_humidity;BME280_pressure;Samples;Min_cycle;Max_cycle;Signal;HPM_P1;HPM_P2
2023/11/28 00:00:26;;;;;;;;;;;4.20;99.90;;;;;;4875233;29;19932;-77
2023/11/28 00:02:55;;;;;;;;;;;4.00;99.90;;;;;;4878176;29;19919;-76
2023/11/28 00:05:24;;;;;;;;;;;3.40;99.90;;;;;;4852220;29;19919;-76
2023/11/28 00:07:53;;;;;;;;;;;2.80;99.90;;;;;;4859732;29;19966;-77
2023/11/28 00:10:21;;;;;;;;;;;2.30;99.90;;;;;;4845036;29;20002;-77
2023/11/28 00:12:49;;;;;;;;;;;2.20;99.90;;;;;;4858988;29;19928;-78
2023/11/28 00:15:18;;;;;;;;;;;2.20;99.90;;;;;;4860374;29;19939;-79
2023/11/28 00:17:46;;;;;;;;;;;-0.10;99.90;;;;;;4859868;29;19932;-78
2023/11/28 00:20:16;;;;;;;;;;;2.50;99.90;;;;;;4871498;29;19923;-80
2023/11/28 00:22:44;;;;;;;;;;;2.20;99.90;;;;;;4844215;29;19928;-76
2023/11/28 00:25:13;;;;;;;;;;;3.50;99.90;;;;;;4836104;29;19939;-77
2023/11/28 00:27:42;;;;;;;;;;;2.20;99.90;;;;;;4840104;29;19923;-78
2023/11/28 00:30:14;;;;;;;;;;;2.60;99.90;;;;;;4861343;29;19939;-76
2023/11/28 00:32:43;;;;;;;;;;;2.20;99.90;;;;;;4851333;29;19951;-76
2023/11/28 00:35:12;;;;;;;;;;;4.00;99.90;;;;;;4844787;29;19938;-77
2023/11/28 00:37:42;;;;;;;;;;;2.80;99.90;;;;;;4845295;29;19932;-78
2023/11/28 00:40:11;;;;;;;;;;;2.50;99.90;;;;;;4846572;29;19933;-76
2023/11/28 00:42:40;;;;;;;;;;;2.90;99.90;;;;;;4835638;29;19924;-78
2023/11/28 00:45:11;;;;;;;;;;;2.50;99.90;;;;;;4844711;29;21970;-77
2023/11/28 00:47:40;;;;;;;;;;;2.30;99.90;;;;;;4843258;29;19975;-78
2023/11/28 00:50:09;;;;;;;;;;;3.30;99.90;;;;;;4832331;29;19931;-77
2023/11/28 00:52:39;;;;;;;;;;;2.40;99.90;;;;;;4829293;29;19938;-78
2023/11/28 00:55:09;;;;;;;;;;;2.40;99.90;;;;;;4833372;29;19939;-78
2023/11/28 00:57:37;;;;;;;;;;;2.40;99.90;;;;;;4842745;29;20682;-78
2023/11/28 01:00:09;;;;;;;;;;;2.40;99.90;;;;;;4826314;29;19932;-77
2023/11/28 01:02:38;;;;;;;;;;;2.40;99.90;;;;;;4858735;29;19932;-77
2023/11/28 01:05:08;;;;;;;;;;;2.30;99.90;;;;;;4869816;29;19931;-76
2023/11/28 01:07:37;;;;;;;;;;;2.40;99.90;;;;;;4843571;29;19935;-78
2023/11/28 01:10:07;;;;;;;;;;;2.40;99.90;;;;;;4837328;29;19931;-77
2023/11/28 01:12:37;;;;;;;;;;;2.40;99.90;;;;;;4852751;29;19938;-76
2023/11/28 01:15:05;;;;;;;;;;;2.40;99.90;;;;;;4861970;29;19931;-76
2023/11/28 01:17:34;;;;;;;;;;;2.40;99.90;;;;;;4834078;29;19931;-75
2023/11/28 01:20:02;;;;;;;;;;;2.40;99.90;;;;;;4829693;29;20034;-74
2023/11/28 01:22:31;;;;;;;;;;;2.40;99.90;;;;;;4828519;29;19938;-75
2023/11/28 01:24:59;;;;;;;;;;;2.40;99.90;;;;;;4838509;29;19931;-74
2023/11/28 01:27:27;;;;;;;;;;;2.40;99.90;;;;;;4837658;29;20441;-74
2023/11/28 01:29:57;;;;;;;;;;;2.40;99.90;;;;;;4831638;29;20639;-75
2023/11/28 01:32:25;;;;;;;;;;;2.40;99.90;;;;;;4826307;29;20532;-74
2023/11/28 01:34:53;;;;;;;;;;;2.40;99.90;;;;;;4832389;29;19963;-76
2023/11/28 01:37:22;;;;;;;;;;;2.50;99.90;;;;;;4837007;29;20696;-75
2023/11/28 01:39:50;;;;;;;;;;;2.50;99.90;;;;;;4830206;29;20402;-75
2023/11/28 01:42:18;;;;;;;;;;;2.50;99.90;;;;;;4815310;29;19939;-75
2023/11/28 01:44:46;;;;;;;;;;;2.50;99.90;;;;;;4817687;29;20022;-75
2023/11/28 01:47:16;;;;;;;;;;;2.50;99.90;;;;;;4845017;29;19931;-75
2023/11/28 01:49:44;;;;;;;;;;;2.50;99.90;;;;;;4833161;29;19932;-75
2023/11/28 01:52:13;;;;;;;;;;;2.50;99.90;;;;;;4819773;29;19986;-74
2023/11/28 01:54:43;;;;;;;;;;;2.50;99.90;;;;;;4829247;29;20307;-74
2023/11/28 01:57:12;;;;;;;;;;;2.60;99.90;;;;;;4864389;29;19927;-74
2023/11/28 01:59:41;;;;;;;;;;;2.60;99.90;;;;;;4839068;29;20015;-76
2023/11/28 02:02:09;;;;;;;;;;;2.60;99.90;;;;;;4820551;29;19931;-76
2023/11/28 02:04:39;;;;;;;;;;;2.60;99.90;;;;;;4826565;29;20087;-76
2023/11/28 02:07:07;;;;;;;;;;;2.60;99.90;;;;;;4843065;29;19983;-75
2023/11/28 02:09:36;;;;;;;;;;;2.60;99.90;;;;;;4832302;29;19939;-75
2023/11/28 02:12:06;;;;;;;;;;;2.60;99.90;;;;;;4858658;29;19932;-75
2023/11/28 02:14:42;;;;;;;;;;;2.60;99.90;;;;;;4820067;29;19939;-75
2023/11/28 02:17:10;;;;;;;;;;;2.60;99.90;;;;;;4830351;29;19938;-75
2023/11/28 02:19:40;;;;;;;;;;;2.60;99.90;;;;;;4847575;29;20514;-75
2023/11/28 02:22:08;;;;;;;;;;;2.60;99.90;;;;;;4847591;29;20163;-75
2023/11/28 02:24:39;;;;;;;;;;;2.60;99.90;;;;;;4830930;29;19932;-74
2023/11/28 02:27:08;;;;;;;;;;;2.60;99.90;;;;;;4838177;29;19938;-75
2023/11/28 02:29:36;;;;;;;;;;;2.60;99.90;;;;;;4816043;29;19932;-75
2023/11/28 02:32:05;;;;;;;;;;;2.60;99.90;;;;;;4844160;29;20303;-75
2023/11/28 02:34:33;;;;;;;;;;;2.60;99.90;;;;;;4833379;29;20050;-74
2023/11/28 02:37:01;;;;;;;;;;;2.60;99.90;;;;;;4832198;29;19939;-74
2023/11/28 02:39:30;;;;;;;;;;;2.70;99.90;;;;;;4823819;29;19939;-76
2023/11/28 02:41:59;;;;;;;;;;;2.70;99.90;;;;;;4850902;29;19939;-75
2023/11/28 02:44:28;;;;;;;;;;;2.70;99.90;;;;;;4832886;29;19932;-76
2023/11/28 02:46:56;;;;;;;;;;;2.70;99.90;;;;;;4846121;29;19932;-74
2023/11/28 02:49:26;;;;;;;;;;;2.70;99.90;;;;;;4829065;29;19982;-75
2023/11/28 02:51:54;;;;;;;;;;;2.70;99.90;;;;;;4822472;29;22406;-74
2023/11/28 02:54:21;;;;;;;;;;;2.70;99.90;;;;;;4829737;29;19932;-75
2023/11/28 02:56:49;;;;;;;;;;;2.70;99.90;;;;;;4847615;29;19937;-75
2023/11/28 02:59:17;;;;;;;;;;;2.70;99.90;;;;;;4822428;29;19939;-75
2023/11/28 03:01:53;;;;;;;;;;;2.70;99.90;;;;;;4830784;29;20427;-75
2023/11/28 03:04:21;;;;;;;;;;;2.70;99.90;;;;;;4845407;29;20163;-75
2023/11/28 03:06:50;;;;;;;;;;;2.70;99.90;;;;;;4827393;29;19939;-75
2023/11/28 03:09:18;;;;;;;;;;;2.70;99.90;;;;;;4824902;29;19931;-75
2023/11/28 03:11:46;;;;;;;;;;;2.70;99.90;;;;;;4838716;29;19958;-75
2023/11/28 03:14:14;;;;;;;;;;;2.70;99.90;;;;;;4840966;29;19931;-75
2023/11/28 03:16:43;;;;;;;;;;;2.80;99.90;;;;;;4834351;29;22378;-75
2023/11/28 03:19:13;;;;;;;;;;;2.70;99.90;;;;;;4821244;29;19979;-77
2023/11/28 03:21:41;;;;;;;;;;;2.70;99.90;;;;;;4832034;29;20030;-75
2023/11/28 03:24:09;;;;;;;;;;;2.70;99.90;;;;;;4835470;29;20647;-75
2023/11/28 03:26:38;;;;;;;;;;;2.80;99.90;;;;;;4820855;29;20083;-76
2023/11/28 03:29:06;;;;;;;;;;;2.80;99.90;;;;;;4845725;29;20360;-75
2023/11/28 03:31:34;;;;;;;;;;;2.70;99.90;;;;;;4821312;29;19931;-75
2023/11/28 03:34:03;;;;;;;;;;;2.80;99.90;;;;;;4831722;29;19936;-75
2023/11/28 03:36:33;;;;;;;;;;;2.80;99.90;;;;;;4840569;29;19931;-75
2023/11/28 03:39:01;;;;;;;;;;;2.70;99.90;;;;;;4838296;29;19935;-77
2023/11/28 03:41:29;;;;;;;;;;;2.80;99.90;;;;;;4851126;29;19934;-78
2023/11/28 03:43:58;;;;;;;;;;;2.80;99.90;;;;;;4841229;29;19936;-77
2023/11/28 03:46:26;;;;;;;;;;;2.80;99.90;;;;;;4840357;29;20692;-78
2023/11/28 03:48:54;;;;;;;;;;;2.80;99.90;;;;;;4847313;29;19931;-78
2023/11/28 03:51:23;;;;;;;;;;;2.80;99.90;;;;;;4833136;29;22194;-78
2023/11/28 03:53:53;;;;;;;;;;;2.80;99.90;;;;;;4830734;29;19927;-78
2023/11/28 03:56:21;;;;;;;;;;;2.80;99.90;;;;;;4849912;29;20686;-78
2023/11/28 03:58:49;;;;;;;;;;;2.80;99.90;;;;;;4858216;29;19932;-78
2023/11/28 04:01:18;;;;;;;;;;;2.90;99.90;;;;;;4833400;29;19938;-79
2023/11/28 04:03:46;;;;;;;;;;;2.80;99.90;;;;;;4836013;29;19954;-77
2023/11/28 04:06:14;;;;;;;;;;;2.80;99.90;;;;;;4847289;29;19931;-78
2023/11/28 04:08:43;;;;;;;;;;;2.90;99.90;;;;;;4853469;29;19932;-78
2023/11/28 04:11:13;;;;;;;;;;;2.80;99.90;;;;;;4834555;29;19931;-78
2023/11/28 04:13:41;;;;;;;;;;;3.00;99.90;;;;;;4846660;29;19937;-78
2023/11/28 04:16:09;;;;;;;;;;;2.90;99.90;;;;;;4853221;29;19931;-78
2023/11/28 04:18:38;;;;;;;;;;;2.90;99.90;;;;;;4839599;29;19931;-77
2023/11/28 04:21:06;;;;;;;;;;;2.90;99.90;;;;;;4849969;29;20072;-77
2023/11/28 04:23:34;;;;;;;;;;;2.90;99.90;;;;;;4848450;29;19939;-78
2023/11/28 04:26:04;;;;;;;;;;;2.90;99.90;;;;;;4845185;29;19924;-77
2023/11/28 04:28:33;;;;;;;;;;;3.00;99.90;;;;;;4829486;29;19991;-78
2023/11/28 04:31:01;;;;;;;;;;;2.90;99.90;;;;;;4830779;29;20023;-77
2023/11/28 04:33:31;;;;;;;;;;;2.90;99.90;;;;;;4836004;29;20910;-77
2023/11/28 04:36:00;;;;;;;;;;;2.90;99.90;;;;;;4825575;29;19939;-77
2023/11/28 04:38:29;;;;;;;;;;;3.00;99.90;;;;;;4836308;29;20746;-77
2023/11/28 04:40:57;;;;;;;;;;;3.00;99.90;;;;;;4858408;29;20430;-77
2023/11/28 04:43:25;;;;;;;;;;;3.00;99.90;;;;;;4839642;29;19937;-78
2023/11/28 04:45:55;;;;;;;;;;;3.00;99.90;;;;;;4839805;29;19938;-77
2023/11/28 04:48:23;;;;;;;;;;;3.00;99.90;;;;;;4831016;29;20170;-77
2023/11/28 04:50:51;;;;;;;;;;;3.00;99.90;;;;;;4825323;29;20079;-77
2023/11/28 04:53:20;;;;;;;;;;;3.00;99.90;;;;;;4833200;29;19923;-78
2023/11/28 04:55:48;;;;;;;;;;;3.10;99.90;;;;;;4836972;29;20004;-77
2023/11/28 04:58:16;;;;;;;;;;;3.10;99.90;;;;;;4838132;29;20029;-77
2023/11/28 05:00:45;;;;;;;;;;;3.00;99.90;;;;;;4824262;29;20046;-77
2023/11/28 05:03:15;;;;;;;;;;;3.00;99.90;;;;;;4847825;29;19979;-77
2023/11/28 05:05:43;;;;;;;;;;;3.00;99.90;;;;;;4822429;29;19932;-77
2023/11/28 05:08:14;;;;;;;;;;;3.10;99.90;;;;;;4854709;29;20017;-77
2023/11/28 05:10:42;;;;;;;;;;;3.10;99.90;;;;;;4823200;29;20624;-77
2023/11/28 05:13:11;;;;;;;;;;;3.00;99.90;;;;;;4830382;29;19935;-77
2023/11/28 05:15:39;;;;;;;;;;;3.00;99.90;;;;;;4824293;29;19939;-78
2023/11/28 05:18:07;;;;;;;;;;;3.00;99.90;;;;;;4840271;29;19924;-77
2023/11/28 05:20:37;;;;;;;;;;;3.10;99.90;;;;;;4834940;29;20388;-77
2023/11/28 05:23:06;;;;;;;;;;;3.10;99.90;;;;;;4823981;29;20704;-77
2023/11/28 05:25:36;;;;;;;;;;;3.10;99.90;;;;;;4833053;29;19932;-77
2023/11/28 05:28:05;;;;;;;;;;;3.10;99.90;;;;;;4848484;29;20078;-78
2023/11/28 05:30:33;;;;;;;;;;;3.10;99.90;;;;;;4841672;29;20667;-78
2023/11/28 05:33:02;;;;;;;;;;;3.10;99.90;;;;;;4832955;29;20821;-77
2023/11/28 05:35:31;;;;;;;;;;;3.10;99.90;;;;;;4824828;29;20635;-78
2023/11/28 05:38:03;;;;;;;;;;;3.10;99.90;;;;;;4842859;29;20388;-78
2023/11/28 05:40:31;;;;;;;;;;;3.10;99.90;;;;;;4842130;29;20014;-78
2023/11/28 05:42:59;;;;;;;;;;;3.10;99.90;;;;;;4843733;29;19995;-78
2023/11/28 05:45:29;;;;;;;;;;;3.10;99.90;;;;;;4828873;29;20055;-78
2023/11/28 05:47:57;;;;;;;;;;;3.10;99.90;;;;;;4830143;29;20392;-78
2023/11/28 05:50:26;;;;;;;;;;;3.10;99.90;;;;;;4828193;29;19932;-78
2023/11/28 05:52:54;;;;;;;;;;;3.10;99.90;;;;;;4862063;29;19924;-77
2023/11/28 05:55:25;;;;;;;;;;;3.10;99.90;;;;;;4830513;29;19931;-78
2023/11/28 05:57:53;;;;;;;;;;;3.20;99.90;;;;;;4838119;29;20388;-77
2023/11/28 06:00:21;;;;;;;;;;;3.20;99.90;;;;;;4836615;29;19938;-76
2023/11/28 06:02:49;;;;;;;;;;;3.20;99.90;;;;;;4823657;29;19975;-75
2023/11/28 06:05:18;;;;;;;;;;;3.20;99.90;;;;;;4823834;29;19931;-75
2023/11/28 06:07:46;;;;;;;;;;;3.10;99.90;;;;;;4842010;29;19924;-76
2023/11/28 06:10:15;;;;;;;;;;;3.10;99.90;;;;;;4837695;29;20296;-77
2023/11/28 06:12:44;;;;;;;;;;;3.10;99.90;;;;;;4837041;29;19961;-77
2023/11/28 06:15:13;;;;;;;;;;;3.20;99.90;;;;;;4834439;29;19932;-76
2023/11/28 06:17:41;;;;;;;;;;;3.20;99.90;;;;;;4838851;29;22455;-77
2023/11/28 06:20:14;;;;;;;;;;;3.10;99.90;;;;;;4852282;29;19975;-76
2023/11/28 06:22:45;;;;;;;;;;;3.30;99.90;;;;;;4836531;29;19932;-76
2023/11/28 06:25:13;;;;;;;;;;;3.20;99.90;;;;;;4849914;29;19944;-77
2023/11/28 06:27:42;;;;;;;;;;;3.20;99.90;;;;;;4849202;29;19954;-76
2023/11/28 06:30:12;;;;;;;;;;;3.20;99.90;;;;;;4849990;29;20034;-77
2023/11/28 06:32:41;;;;;;;;;;;3.10;99.90;;;;;;4848873;29;19932;-76
2023/11/28 06:35:10;;;;;;;;;;;3.10;99.90;;;;;;4832626;29;19932;-77
2023/11/28 06:37:42;;;;;;;;;;;3.20;99.90;;;;;;4840067;29;19939;-76
2023/11/28 06:40:14;;;;;;;;;;;3.20;99.90;;;;;;4826271;29;19939;-76
2023/11/28 06:42:43;;;;;;;;;;;3.20;99.90;;;;;;4851072;29;19938;-77
2023/11/28 06:45:13;;;;;;;;;;;3.20;99.90;;;;;;4817102;29;19962;-77
2023/11/28 06:47:41;;;;;;;;;;;3.20;99.90;;;;;;4817673;29;19931;-78
2023/11/28 06:50:11;;;;;;;;;;;3.20;99.90;;;;;;4844962;29;19932;-78
2023/11/28 06:52:39;;;;;;;;;;;3.20;99.90;;;;;;4816803;29;19931;-77
2023/11/28 06:55:08;;;;;;;;;;;3.20;99.90;;;;;;4836170;29;22197;-77
2023/11/28 06:57:36;;;;;;;;;;;3.20;99.90;;;;;;4806154;29;19939;-78
2023/11/28 07:00:05;;;;;;;;;;;3.20;99.90;;;;;;4813195;29;19931;-77
2023/11/28 07:02:35;;;;;;;;;;;3.20;99.90;;;;;;4828561;29;19938;-76
2023/11/28 07:05:04;;;;;;;;;;;3.20;99.90;;;;;;4828370;29;19938;-77
2023/11/28 07:07:33;;;;;;;;;;;3.20;99.90;;;;;;4826035;29;19931;-76
2023/11/28 07:10:02;;;;;;;;;;;3.20;99.90;;;;;;4839987;29;20316;-77
2023/11/28 07:12:30;;;;;;;;;;;3.20;99.90;;;;;;4848445;29;20381;-78
2023/11/28 07:14:58;;;;;;;;;;;3.20;99.90;;;;;;4819970;29;22221;-78
2023/11/28 07:17:27;;;;;;;;;;;3.20;99.90;;;;;;4827115;29;20808;-76
2023/11/28 07:19:57;;;;;;;;;;;3.20;99.90;;;;;;4826500;29;19939;-79
2023/11/28 07:22:25;;;;;;;;;;;3.20;99.90;;;;;;4841158;29;19920;-79
2023/11/28 07:24:54;;;;;;;;;;;3.20;99.90;;;;;;4861672;29;19932;-79
2023/11/28 07:27:26;;;;;;;;;;;3.50;99.90;;;;;;4827023;29;19987;-76
2023/11/28 07:29:55;;;;;;;;;;;3.90;99.90;;;;;;4853678;29;20494;-79
2023/11/28 07:32:23;;;;;;;;;;;3.20;99.90;;;;;;4826639;29;20411;-77
2023/11/28 07:34:52;;;;;;;;;;;3.30;99.90;;;;;;4847549;29;19970;-77
2023/11/28 07:37:23;;;;;;;;;;;3.30;99.90;;;;;;4863500;29;22170;-77
2023/11/28 07:39:51;;;;;;;;;;;3.30;99.90;;;;;;4821816;29;19931;-79
2023/11/28 07:42:20;;;;;;;;;;;3.40;99.90;;;;;;4833990;29;19945;-80
2023/11/28 07:44:48;;;;;;;;;;;1.80;99.90;;;;;;4815900;29;19999;-76
2023/11/28 07:47:16;;;;;;;;;;;3.50;99.90;;;;;;4816951;29;19970;-76
2023/11/28 07:49:44;;;;;;;;;;;3.40;99.90;;;;;;4804829;29;19966;-77
2023/11/28 07:52:13;;;;;;;;;;;3.50;99.90;;;;;;4828956;29;19938;-77
2023/11/28 07:54:42;;;;;;;;;;;3.60;99.90;;;;;;4832088;29;20427;-77
2023/11/28 07:57:11;;;;;;;;;;;3.50;99.90;;;;;;4836332;29;20319;-76
2023/11/28 07:59:39;;;;;;;;;;;3.50;99.90;;;;;;4842978;29;20684;-78
2023/11/28 08:02:07;;;;;;;;;;;3.60;99.90;;;;;;4814333;29;19941;-78
2023/11/28 08:04:35;;;;;;;;;;;3.60;99.90;;;;;;4806017;29;21920;-77
2023/11/28 08:07:04;;;;;;;;;;;3.50;99.90;;;;;;4827531;29;20184;-77
2023/11/28 08:09:32;;;;;;;;;;;3.60;99.90;;;;;;4820979;29;20004;-76
2023/11/28 08:12:03;;;;;;;;;;;3.60;99.90;;;;;;4816857;29;20456;-77
2023/11/28 08:14:31;;;;;;;;;;;3.60;99.90;;;;;;4824286;29;19966;-78
2023/11/28 08:16:59;;;;;;;;;;;3.70;99.90;;;;;;4857440;29;19928;-77
2023/11/28 08:19:28;;;;;;;;;;;3.70;99.90;;;;;;4832461;29;19954;-77
2023/11/28 08:21:56;;;;;;;;;;;3.70;99.90;;;;;;4836258;29;20293;-76
2023/11/28 08:24:24;;;;;;;;;;;3.80;99.90;;;;;;4827478;29;20206;-76
2023/11/28 08:26:52;;;;;;;;;;;3.80;99.90;;;;;;4831992;29;20292;-76
2023/11/28 08:29:22;;;;;;;;;;;3.80;99.90;;;;;;4815220;29;19983;-77
2023/11/28 08:31:51;;;;;;;;;;;3.80;99.90;;;;;;4812242;29;19966;-77
2023/11/28 08:34:20;;;;;;;;;;;3.80;99.90;;;;;;4812405;29;19931;-76
2023/11/28 08:36:48;;;;;;;;;;;3.80;99.90;;;;;;4812993;29;20463;-76
2023/11/28 08:39:16;;;;;;;;;;;3.90;99.90;;;;;;4812740;29;19938;-78
2023/11/28 08:41:45;;;;;;;;;;;3.90;99.90;;;;;;4839706;29;19938;-77
2023/11/28 08:44:13;;;;;;;;;;;3.90;99.90;;;;;;4805311;29;19937;-76
2023/11/28 08:46:43;;;;;;;;;;;4.00;99.90;;;;;;4821535;29;19935;-76
2023/11/28 08:49:11;;;;;;;;;;;4.00;99.90;;;;;;4821209;29;19968;-76
2023/11/28 08:51:40;;;;;;;;;;;4.00;99.90;;;;;;4861803;29;19956;-76
2023/11/28 08:54:08;;;;;;;;;;;4.00;99.90;;;;;;4814926;29;19931;-77
2023/11/28 08:56:36;;;;;;;;;;;4.10;99.90;;;;;;4812861;29;19932;-77
2023/11/28 08:59:05;;;;;;;;;;;4.10;99.90;;;;;;4814830;29;20089;-77
2023/11/28 09:01:33;;;;;;;;;;;4.10;99.90;;;;;;4840797;29;20514;-76
2023/11/28 09:04:03;;;;;;;;;;;4.20;99.90;;;;;;4811073;29;19931;-77
2023/11/28 09:06:32;;;;;;;;;;;4.10;99.90;;;;;;4822208;29;19931;-76
2023/11/28 09:09:00;;;;;;;;;;;4.10;99.90;;;;;;4843207;29;20372;-77
2023/11/28 09:11:28;;;;;;;;;;;4.10;99.90;;;;;;4832622;29;19931;-77
2023/11/28 09:14:00;;;;;;;;;;;4.00;99.90;;;;;;4829105;29;20407;-77
2023/11/28 09:16:28;;;;;;;;;;;4.20;99.90;;;;;;4828202;29;19931;-76
2023/11/28 09:18:56;;;;;;;;;;;4.20;99.90;;;;;;4856823;29;19931;-77
2023/11/28 09:21:26;;;;;;;;;;;4.20;99.90;;;;;;4811892;29;19963;-77
2023/11/28 09:23:54;;;;;;;;;;;4.20;99.90;;;;;;4810710;29;22152;-76
2023/11/28 09:26:26;;;;;;;;;;;4.20;99.90;;;;;;4829525;29;19931;-76
2023/11/28 09:28:54;;;;;;;;;;;4.30;99.90;;;;;;4837949;29;19932;-80
2023/11/28 09:31:26;;;;;;;;;;;4.20;99.90;;;;;;4832955;29;21722;-80
2023/11/28 09:33:57;;;;;;;;;;;7.30;99.90;;;;;;4841978;29;19932;-79
2023/11/28 09:36:27;;;;;;;;;;;4.30;99.90;;;;;;4858945;29;19939;-79
2023/11/28 09:38:58;;;;;;;;;;;4.40;99.90;;;;;;4863233;29;19932;-79
2023/11/28 09:41:28;;;;;;;;;;;4.40;99.90;;;;;;4843656;29;19938;-79
2023/11/28 09:44:07;;;;;;;;;;;4.40;99.90;;;;;;4861521;29;21886;-79
2023/11/28 09:46:37;;;;;;;;;;;4.80;99.90;;;;;;4841621;29;19938;-79
2023/11/28 09:49:07;;;;;;;;;;;3.80;99.90;;;;;;4858714;29;20768;-80
2023/11/28 09:51:39;;;;;;;;;;;4.40;99.90;;;;;;4839961;29;19956;-80
2023/11/28 09:54:08;;;;;;;;;;;4.40;99.90;;;;;;4861771;29;19931;-79
2023/11/28 09:56:37;;;;;;;;;;;4.50;99.90;;;;;;4861795;29;19932;-79
2023/11/28 09:59:08;;;;;;;;;;;4.40;99.90;;;;;;4860628;29;19991;-80
2023/11/28 10:01:38;;;;;;;;;;;7.00;99.90;;;;;;4843850;29;20050;-79
2023/11/28 10:04:07;;;;;;;;;;;4.20;99.90;;;;;;4835713;29;20692;-79
2023/11/28 10:06:38;;;;;;;;;;;4.50;99.90;;;;;;4857620;29;19931;-80
2023/11/28 10:09:08;;;;;;;;;;;4.50;99.90;;;;;;4843321;29;19967;-79
2023/11/28 10:11:38;;;;;;;;;;;4.10;99.90;;;;;;4855263;29;19924;-79
2023/11/28 10:14:07;;;;;;;;;;;4.60;99.90;;;;;;4851327;29;20696;-80
2023/11/28 10:16:43;;;;;;;;;;;6.20;99.90;;;;;;4851536;29;19930;-79
2023/11/28 10:19:12;;;;;;;;;;;4.60;99.90;;;;;;4840668;29;19932;-81
2023/11/28 10:21:42;;;;;;;;;;;4.60;99.90;;;;;;4855652;29;20015;-80
2023/11/28 10:24:10;;;;;;;;;;;6.10;99.90;;;;;;4837359;29;20027;-79
2023/11/28 10:26:39;;;;;;;;;;;4.60;99.90;;;;;;4839015;29;19956;-80
2023/11/28 10:29:07;;;;;;;;;;;7.20;99.90;;;;;;4853809;29;19974;-79
2023/11/28 10:31:37;;;;;;;;;;;5.00;99.90;;;;;;4848033;29;19932;-79
2023/11/28 10:34:08;;;;;;;;;;;5.10;99.90;;;;;;4850800;29;19955;-79
2023/11/28 10:36:42;;;;;;;;;;;5.30;99.90;;;;;;4861690;29;19935;-80
2023/11/28 10:39:18;;;;;;;;;;;3.90;99.90;;;;;;4857514;29;19928;-81
2023/11/28 10:41:49;;;;;;;;;;;3.30;99.90;;;;;;4863944;29;19939;-80
2023/11/28 10:44:17;;;;;;;;;;;6.30;99.90;;;;;;4847964;29;20019;-80
2023/11/28 10:46:48;;;;;;;;;;;4.90;99.90;;;;;;4857559;29;19931;-79
2023/11/28 10:49:17;;;;;;;;;;;5.40;99.90;;;;;;4850173;29;19970;-79
2023/11/28 10:51:50;;;;;;;;;;;4.80;99.90;;;;;;4876259;29;19955;-78
2023/11/28 10:54:19;;;;;;;;;;;3.90;99.90;;;;;;4838073;29;19931;-79
2023/11/28 10:56:49;;;;;;;;;;;5.00;99.90;;;;;;4844717;29;19932;-79
2023/11/28 10:59:22;;;;;;;;;;;5.20;99.90;;;;;;4854476;29;19940;-78
2023/11/28 11:01:51;;;;;;;;;;;4.90;99.90;;;;;;4843445;29;19931;-79
2023/11/28 11:04:20;;;;;;;;;;;5.40;99.90;;;;;;4848009;29;19932;-78
2023/11/28 11:06:50;;;;;;;;;;;5.20;99.90;;;;;;4836935;29;19932;-80
2023/11/28 11:09:18;;;;;;;;;;;5.00;99.90;;;;;;4853888;29;19947;-79
2023/11/28 11:11:47;;;;;;;;;;;4.70;99.90;;;;;;4863223;29;19992;-80
2023/11/28 11:14:21;;;;;;;;;;;6.90;99.90;;;;;;4838090;29;19954;-81
2023/11/28 11:16:54;;;;;;;;;;;5.20;99.90;;;;;;4853159;29;20038;-80
2023/11/28 11:19:23;;;;;;;;;;;4.70;99.90;;;;;;4861553;29;20035;-79
2023/11/28 11:21:56;;;;;;;;;;;4.90;99.90;;;;;;4834953;29;19932;-79
2023/11/28 11:24:26;;;;;;;;;;;4.70;99.90;;;;;;4847336;29;19931;-80
2023/11/28 11:26:54;;;;;;;;;;;4.90;99.90;;;;;;4842742;29;19938;-79
2023/11/28 11:29:37;;;;;;;;;;;4.70;99.90;;;;;;4840090;29;20059;-79
2023/11/28 11:32:10;;;;;;;;;;;5.00;99.90;;;;;;4839875;29;19973;-80
2023/11/28 11:34:41;;;;;;;;;;;6.60;99.90;;;;;;4842271;29;19932;-79
2023/11/28 11:37:11;;;;;;;;;;;4.50;99.90;;;;;;4836276;29;20012;-79
2023/11/28 11:39:41;;;;;;;;;;;5.20;99.90;;;;;;4840047;29;20300;-78
2023/11/28 11:42:10;;;;;;;;;;;4.90;99.90;;;;;;4842863;29;20023;-78
2023/11/28 11:44:40;;;;;;;;;;;5.00;99.90;;;;;;4859959;29;19927;-79
2023/11/28 11:47:16;;;;;;;;;;;5.00;99.90;;;;;;4841677;29;19938;-79
2023/11/28 11:49:45;;;;;;;;;;;5.00;99.90;;;;;;4844430;29;20015;-77
2023/11/28 11:52:15;;;;;;;;;;;5.00;99.90;;;;;;4832039;29;19936;-77
2023/11/28 11:54:44;;;;;;;;;;;5.00;99.90;;;;;;4815835;29;19986;-77
2023/11/28 11:57:13;;;;;;;;;;;5.00;99.90;;;;;;4816863;29;20033;-77
2023/11/28 11:59:41;;;;;;;;;;;5.00;99.90;;;;;;4810309;29;19978;-77
2023/11/28 12:02:09;;;;;;;;;;;5.00;99.90;;;;;;4817124;29;20392;-77
2023/11/28 12:04:41;;;;;;;;;;;5.00;99.90;;;;;;4818008;29;19932;-77
2023/11/28 12:07:11;;;;;;;;;;;5.00;99.90;;;;;;4828568;29;19932;-77
2023/11/28 12:09:41;;;;;;;;;;;5.00;99.90;;;;;;4815105;29;19931;-77
2023/11/28 12:12:11;;;;;;;;;;;5.00;99.90;;;;;;4810572;29;19932;-77
2023/11/28 12:14:40;;;;;;;;;;;5.00;99.90;;;;;;4833950;29;19932;-77
2023/11/28 12:17:09;;;;;;;;;;;5.10;99.90;;;;;;4820296;29;19932;-76
2023/11/28 12:19:37;;;;;;;;;;;5.00;99.90;;;;;;4831863;29;19939;-77
2023/11/28 12:22:08;;;;;;;;;;;5.00;99.90;;;;;;4828503;29;20416;-77
2023/11/28 12:24:36;;;;;;;;;;;5.00;99.90;;;;;;4829594;29;19963;-77
2023/11/28 12:27:07;;;;;;;;;;;5.00;99.90;;;;;;4830614;29;22741;-76
2023/11/28 12:29:35;;;;;;;;;;;5.00;99.90;;;;;;4830936;29;22200;-77
2023/11/28 12:32:05;;;;;;;;;;;5.00;99.90;;;;;;4828814;29;20306;-76
2023/11/28 12:34:34;;;;;;;;;;;5.00;99.90;;;;;;4819926;29;19938;-77
2023/11/28 12:37:03;;;;;;;;;;;5.00;99.90;;;;;;4813055;29;19994;-77
2023/11/28 12:39:31;;;;;;;;;;;5.00;99.90;;;;;;4830959;29;19938;-78
2023/11/28 12:41:59;;;;;;;;;;;5.00;99.90;;;;;;4829084;29;19939;-78
2023/11/28 12:44:30;;;;;;;;;;;5.00;99.90;;;;;;4828822;29;19939;-77
2023/11/28 12:46:59;;;;;;;;;;;5.00;99.90;;;;;;4826365;29;19932;-77
2023/11/28 12:49:29;;;;;;;;;;;5.10;99.90;;;;;;4827210;29;19956;-77
2023/11/28 12:51:57;;;;;;;;;;;5.00;99.90;;;;;;4812421;29;19970;-77
2023/11/28 12:54:26;;;;;;;;;;;5.10;99.90;;;;;;4828881;29;20001;-77
2023/11/28 12:56:57;;;;;;;;;;;5.10;99.90;;;;;;4829461;29;19983;-77
2023/11/28 12:59:28;;;;;;;;;;;5.10;99.90;;;;;;4821372;29;19932;-79
2023/11/28 13:01:58;;;;;;;;;;;5.10;99.90;;;;;;4845242;29;19954;-78
2023/11/28 13:04:27;;;;;;;;;;;5.10;99.90;;;;;;4858045;29;19939;-78
2023/11/28 13:06:56;;;;;;;;;;;5.10;99.90;;;;;;4841648;29;19931;-78
2023/11/28 13:09:41;;;;;;;;;;;8.60;99.90;;;;;;4839439;29;19931;-79
2023/11/28 13:12:09;;;;;;;;;;;5.00;99.90;;;;;;4843742;29;19931;-80
2023/11/28 13:14:40;;;;;;;;;;;5.10;99.90;;;;;;4842487;29;19931;-79
2023/11/28 13:17:10;;;;;;;;;;;5.40;99.90;;;;;;4841132;29;20054;-79
2023/11/28 13:19:39;;;;;;;;;;;4.30;99.90;;;;;;4831965;29;20618;-79
2023/11/28 13:22:10;;;;;;;;;;;5.00;99.90;;;;;;4859283;29;19932;-79
2023/11/28 13:24:38;;;;;;;;;;;5.10;99.90;;;;;;4857401;29;19931;-78
2023/11/28 13:27:07;;;;;;;;;;;5.20;99.90;;;;;;4835055;29;20034;-78
2023/11/28 13:29:35;;;;;;;;;;;5.10;99.90;;;;;;4857818;29;20499;-80
2023/11/28 13:32:07;;;;;;;;;;;5.10;99.90;;;;;;4860904;29;19931;-79
2023/11/28 13:34:40;;;;;;;;;;;5.10;99.90;;;;;;4846220;29;19923;-79
2023/11/28 13:37:09;;;;;;;;;;;4.80;99.90;;;;;;4845904;29;22170;-79
2023/11/28 13:39:40;;;;;;;;;;;5.20;99.90;;;;;;4822486;29;20632;-79
2023/11/28 13:42:09;;;;;;;;;;;5.00;99.90;;;;;;4822100;29;19932;-79
2023/11/28 13:44:37;;;;;;;;;;;5.00;99.90;;;;;;4849726;29;20098;-79
2023/11/28 13:47:07;;;;;;;;;;;5.00;99.90;;;;;;4851860;29;20711;-78
2023/11/28 13:49:37;;;;;;;;;;;5.00;99.90;;;;;;4856991;29;20021;-79
2023/11/28 13:52:05;;;;;;;;;;;5.00;99.90;;;;;;4864069;29;19975;-79
2023/11/28 13:54:35;;;;;;;;;;;5.10;99.90;;;;;;4837875;29;19932;-79
2023/11/28 13:57:03;;;;;;;;;;;5.10;99.90;;;;;;4838718;29;20684;-79
2023/11/28 13:59:32;;;;;;;;;;;5.30;99.90;;;;;;4839663;29;19932;-79
2023/11/28 14:02:02;;;;;;;;;;;5.40;99.90;;;;;;4848506;29;19984;-79
2023/11/28 14:04:30;;;;;;;;;;;5.00;99.90;;;;;;4843135;29;19943;-79
2023/11/28 14:07:00;;;;;;;;;;;4.90;99.90;;;;;;4857761;29;19928;-79
2023/11/28 14:09:28;;;;;;;;;;;5.70;99.90;;;;;;4857502;29;20012;-76
2023/11/28 14:11:57;;;;;;;;;;;5.30;99.90;;;;;;4830289;29;22265;-76
2023/11/28 14:14:25;;;;;;;;;;;4.90;99.90;;;;;;4823020;29;20348;-77
2023/11/28 14:16:54;;;;;;;;;;;4.90;99.90;;;;;;4810718;29;20485;-77
2023/11/28 14:19:25;;;;;;;;;;;4.90;99.90;;;;;;4841907;29;19932;-76
2023/11/28 14:21:53;;;;;;;;;;;4.80;99.90;;;;;;4826901;29;19990;-77
2023/11/28 14:24:23;;;;;;;;;;;4.80;99.90;;;;;;4815908;29;19932;-77
2023/11/28 14:26:51;;;;;;;;;;;4.80;99.90;;;;;;4832792;29;19932;-77
2023/11/28 14:29:19;;;;;;;;;;;4.80;99.90;;;;;;4806141;29;19932;-76
2023/11/28 14:31:47;;;;;;;;;;;4.80;99.90;;;;;;4832904;29;20395;-76
2023/11/28 14:34:16;;;;;;;;;;;4.70;99.90;;;;;;4833051;29;20065;-75
2023/11/28 14:36:44;;;;;;;;;;;4.80;99.90;;;;;;4813462;29;20073;-76
2023/11/28 14:39:13;;;;;;;;;;;4.70;99.90;;;;;;4823875;29;19932;-76
2023/11/28 14:41:43;;;;;;;;;;;4.70;99.90;;;;;;4807159;29;19970;-76